This is the latest recevied weather packets stored in our database for station/object W6MAF. If no packets are shown the sender has not sent any weather packets the latest 10 day(s).
| Time | Temp. | Humidity | Pressure | Rain* | Wind** | Luminosity | Snow |
|---|---|---|---|---|---|---|---|
| 1777698550 | 14.44° C | 67% | - | 0 mm | 4.92 m/s, 217° | - | - |
| 1777698253 | 14.44° C | 66% | - | 0 mm | 6.71 m/s, 224° | - | - |
| 1777697952 | 14.44° C | 67% | - | 0 mm | 4.92 m/s, 198° | - | - |
| 1777697654 | 14.44° C | 66% | - | 0 mm | 6.71 m/s, 231° | - | - |
| 1777697356 | 15° C | 66% | - | 0 mm | 5.36 m/s, 235° | - | - |
| 1777697058 | 15° C | 65% | - | 0 mm | 6.26 m/s, 224° | - | - |
| 1777696800 | 15° C | 64% | - | 0 mm | 5.81 m/s, 218° | - | - |
| 1777696761 | 15° C | 64% | - | 0 mm | 5.81 m/s, 218° | - | - |
| 1777696464 | 15° C | 63% | - | 0 mm | 6.26 m/s, 218° | - | - |
| 1777696162 | 15° C | 63% | - | 0 mm | 6.71 m/s, 229° | - | - |
| 1777695864 | 15° C | 62% | - | 0 mm | 5.81 m/s, 215° | - | - |
| 1777695567 | 15° C | 62% | - | 0 mm | 7.15 m/s, 229° | - | - |
| 1777695269 | 15° C | 60% | - | 0 mm | 6.71 m/s, 219° | - | - |
| 1777694971 | 15.56° C | 59% | - | 0 mm | 6.71 m/s, 210° | - | - |
| 1777694674 | 15.56° C | 58% | - | 0 mm | 6.26 m/s, 224° | - | - |
| 1777694373 | 15.56° C | 57% | - | 0 mm | 6.26 m/s, 228° | - | - |
| 1777694075 | 15.56° C | 56% | - | 0 mm | 6.26 m/s, 238° | - | - |
| 1777693480 | 15.56° C | 55% | - | 0 mm | 6.26 m/s, 221° | - | - |
| 1777693182 | 15.56° C | 54% | - | 0 mm | 6.26 m/s, 226° | - | - |
| 1777692884 | 16.11° C | 53% | - | 0 mm | 5.81 m/s, 198° | - | - |
| 1777692583 | 16.11° C | 53% | - | 0 mm | 6.26 m/s, 224° | - | - |
| 1777692285 | 16.11° C | 52% | - | 0 mm | 5.81 m/s, 218° | - | - |
| 1777691988 | 16.11° C | 51% | - | 0 mm | 4.02 m/s, 217° | - | - |
| 1777691690 | 16.11° C | 49% | - | 0 mm | 5.81 m/s, 221° | - | - |
| 1777691392 | 16.67° C | 49% | - | 0 mm | 6.71 m/s, 217° | - | - |
* Rain latest hour (hover to see other rain measurements)
** Current wind speed in m/s (hover to see current wind gust speed)